Time;durP1;ratioP1;P1;durP2;ratioP2;P2;SDS_P1;SDS_P2;PMS_P1;PMS_P2;Temp;Humidity;BMP_temperature;BMP_pressure;BME280_temperature;BME280_humidity;BME280_pressure;Samples;Min_cycle;Max_cycle;Signal;HPM_P1;HPM_P2
2022/09/06 00:00:55;;;;;;;;;3.00;3.00;;;;;22.46;61.00;101011.16;5038918;28;45303;-67
2022/09/06 00:03:21;;;;;;;;;5.00;5.00;;;;;22.30;61.25;100984.56;5038970;28;45533;-68
2022/09/06 00:05:47;;;;;;;;;5.00;5.00;;;;;22.44;60.93;101013.25;5038273;28;45622;-69
2022/09/06 00:08:13;;;;;;;;;4.33;4.33;;;;;22.51;61.17;101015.94;5038434;28;45366;-69
2022/09/06 00:10:41;;;;;;;;;4.00;4.00;;;;;22.37;60.83;100979.94;5038583;28;45471;-69
2022/09/06 00:13:08;;;;;;;;;4.67;4.67;;;;;22.49;61.18;101008.03;5038673;28;45438;-69
2022/09/06 00:15:35;;;;;;;;;6.00;4.67;;;;;22.49;60.96;101016.16;5038313;28;46569;-68
2022/09/06 00:18:03;;;;;;;;;6.00;6.00;;;;;22.52;60.89;101015.72;5038473;28;45531;-68
2022/09/06 00:20:29;;;;;;;;;4.00;4.00;;;;;22.47;60.96;101007.41;5038564;28;45326;-68
2022/09/06 00:22:59;;;;;;;;;3.67;3.67;;;;;22.35;60.96;101017.25;5053891;28;45479;-68
2022/09/06 00:25:25;;;;;;;;;5.67;5.00;;;;;22.43;61.21;101023.28;5037849;28;47391;-69
2022/09/06 00:27:58;;;;;;;;;6.00;6.00;;;;;21.70;61.14;100913.53;5036815;28;45325;-68
2022/09/06 00:30:25;;;;;;;;;3.67;3.67;;;;;22.38;61.32;101033.06;5038108;28;45355;-69
2022/09/06 00:32:50;;;;;;;;;7.33;6.00;;;;;22.33;61.13;101024.75;5037207;28;45543;-68
2022/09/06 00:35:17;;;;;;;;;4.00;4.00;;;;;22.34;61.30;101023.72;5038325;28;46648;-68
2022/09/06 00:37:42;;;;;;;;;6.00;6.00;;;;;22.25;61.53;101019.59;5038363;28;45462;-68
2022/09/06 00:40:08;;;;;;;;;4.00;4.00;;;;;22.20;61.72;101011.25;5038144;28;45337;-69
2022/09/06 00:42:33;;;;;;;;;4.00;4.00;;;;;22.24;61.51;101026.88;5038251;28;45402;-68
2022/09/06 00:44:59;;;;;;;;;4.00;4.00;;;;;22.10;61.99;101012.56;5052927;28;47400;-69
2022/09/06 00:47:26;;;;;;;;;5.67;4.33;;;;;22.22;61.81;101041.66;5038051;28;45463;-68
2022/09/06 00:49:55;;;;;;;;;5.00;5.00;;;;;21.66;61.80;100940.19;5038012;28;45461;-69
2022/09/06 00:52:22;;;;;;;;;3.67;3.67;;;;;21.63;61.96;100951.44;5038254;28;45300;-68
2022/09/06 00:54:49;;;;;;;;;4.33;4.33;;;;;22.14;62.51;101037.31;5037620;28;46812;-69
2022/09/06 00:57:16;;;;;;;;;5.00;5.00;;;;;22.11;62.21;101033.16;5037881;28;45486;-69
2022/09/06 00:59:44;;;;;;;;;6.00;6.00;;;;;22.17;62.12;101029.59;5037613;28;45193;-68
2022/09/06 01:02:10;;;;;;;;;6.67;6.67;;;;;22.04;62.32;101013.41;5037989;28;45235;-68
2022/09/06 01:04:38;;;;;;;;;4.50;4.50;;;;;22.07;62.36;101018.41;5037548;28;46560;-69
2022/09/06 01:07:12;;;;;;;;;5.00;5.00;;;;;22.16;62.46;101027.94;5037557;28;45320;-68
2022/09/06 01:09:40;;;;;;;;;8.00;8.00;;;;;22.20;62.41;101028.34;5040378;28;45311;-66
2022/09/06 01:12:32;;;;;;;;;5.00;5.00;;;;;22.20;62.16;101016.66;5039718;28;45306;-69
2022/09/06 01:15:23;;;;;;;;;6.33;5.00;;;;;22.21;62.40;101023.75;5037671;28;46086;-69
2022/09/06 01:18:18;;;;;;;;;6.33;6.33;;;;;22.19;62.42;101021.25;5037745;28;45220;-69
2022/09/06 01:21:09;;;;;;;;;5.33;5.33;;;;;22.17;62.26;101024.19;5037347;28;45245;-68
2022/09/06 01:23:46;;;;;;;;;5.67;5.67;;;;;22.14;62.93;101030.03;5037842;28;45542;-69
2022/09/06 01:26:23;;;;;;;;;7.00;6.00;;;;;22.16;62.41;101027.94;5037071;28;47181;-68
2022/09/06 01:28:51;;;;;;;;;9.33;7.00;;;;;22.19;62.43;101031.25;5037192;28;45548;-68
2022/09/06 01:31:26;;;;;;;;;9.67;8.00;;;;;22.16;61.80;101019.81;5035776;28;45457;-69
2022/09/06 01:34:07;;;;;;;;;5.00;5.00;;;;;22.20;61.74;101028.34;5037485;28;45549;-68
2022/09/06 01:36:45;;;;;;;;;7.00;6.00;;;;;22.17;61.67;101012.53;5036927;28;45562;-69
2022/09/06 01:39:21;;;;;;;;;8.00;8.00;;;;;22.15;62.14;101010.03;5037088;28;45322;-68
2022/09/06 01:41:47;;;;;;;;;6.33;5.00;;;;;22.07;62.22;100999.44;5035789;28;45290;-67
2022/09/06 01:44:13;;;;;;;;;7.00;6.00;;;;;22.12;62.11;101010.47;5037146;28;45419;-68
2022/09/06 01:46:51;;;;;;;;;10.67;7.00;;;;;22.08;62.31;101011.09;5036893;28;46597;-68
2022/09/06 01:49:42;;;;;;;;;8.33;6.00;;;;;22.12;62.63;101020.47;5036897;28;45293;-69
2022/09/06 01:52:12;;;;;;;;;5.00;5.00;;;;;;;;5037088;28;45395;-68
2022/09/06 01:54:43;;;;;;;;;6.00;6.00;;;;;22.04;63.00;101018.81;5036618;28;45419;-67
2022/09/06 01:57:26;;;;;;;;;6.00;6.00;;;;;22.04;62.76;101018.81;5035996;28;47169;-69
2022/09/06 02:00:23;;;;;;;;;10.33;8.67;;;;;22.03;63.01;101022.56;5052000;28;45221;-69
2022/09/06 02:03:13;;;;;;;;;5.00;5.00;;;;;21.95;63.25;101013.81;5037126;28;45449;-69
2022/09/06 02:05:54;;;;;;;;;8.00;7.00;;;;;21.91;63.48;101013.41;5035509;28;45321;-68
2022/09/06 02:08:19;;;;;;;;;9.67;7.00;;;;;21.89;63.64;101014.66;5036462;28;46582;-69
2022/09/06 02:10:53;;;;;;;;;9.67;6.33;;;;;21.71;63.89;100996.38;5036368;28;45389;-69
2022/09/06 02:13:23;;;;;;;;;8.00;5.67;;;;;21.82;64.06;101009.25;5036725;28;45308;-69
2022/09/06 02:15:59;;;;;;;;;5.67;5.67;;;;;21.72;64.27;101001.56;5036547;28;45474;-69
2022/09/06 02:18:34;;;;;;;;;7.00;6.33;;;;;21.62;64.59;100992.22;5036613;28;47419;-68
2022/09/06 02:21:02;;;;;;;;;8.00;6.67;;;;;21.60;64.62;101005.94;5036201;28;45458;-69
2022/09/06 02:23:32;;;;;;;;;7.00;7.00;;;;;21.57;64.64;101000.97;5036524;28;45242;-69
2022/09/06 02:26:05;;;;;;;;;7.00;6.00;;;;;21.56;64.57;101018.25;5036354;28;45352;-69
2022/09/06 02:28:31;;;;;;;;;6.00;6.00;;;;;21.63;64.70;101010.97;5036221;28;46645;-68
2022/09/06 02:31:01;;;;;;;;;6.00;6.00;;;;;21.53;64.44;101000.56;5051572;28;45561;-68
2022/09/06 02:33:30;;;;;;;;;7.00;7.00;;;;;21.33;64.35;100964.56;5036351;28;45445;-68
2022/09/06 02:36:04;;;;;;;;;5.67;5.67;;;;;21.59;64.48;101003.44;5036393;28;45410;-68
2022/09/06 02:38:30;;;;;;;;;6.00;6.00;;;;;21.67;64.68;101011.38;5036265;28;46741;-68
2022/09/06 02:40:56;;;;;;;;;7.00;5.00;;;;;21.66;64.60;101009.72;5035893;28;45435;-68
2022/09/06 02:43:22;;;;;;;;;6.67;6.00;;;;;21.67;64.50;101001.38;5036013;28;45269;-68
2022/09/06 02:45:47;;;;;;;;;6.33;6.00;;;;;21.56;64.47;100978.47;5036528;28;45273;-68
2022/09/06 02:48:13;;;;;;;;;11.33;9.00;;;;;21.65;64.57;100997.22;5035959;28;45489;-69
2022/09/06 02:50:38;;;;;;;;;8.00;8.00;;;;;21.38;64.32;100953.94;5035926;28;45248;-69
2022/09/06 02:53:09;;;;;;;;;9.00;6.33;;;;;21.66;64.43;101009.72;5036233;28;45277;-68
2022/09/06 02:55:36;;;;;;;;;9.67;9.67;;;;;21.66;64.34;101009.72;5022352;28;45399;-68
2022/09/06 02:58:01;;;;;;;;;7.67;7.33;;;;;21.37;64.53;100963.09;5040158;28;45653;-67
2022/09/06 03:00:27;;;;;;;;;8.33;5.67;;;;;21.55;64.67;100978.69;5036669;28;45378;-70
2022/09/06 03:02:54;;;;;;;;;7.33;7.00;;;;;21.56;64.49;100983.91;5033978;28;45423;-68
2022/09/06 03:05:20;;;;;;;;;8.00;7.00;;;;;21.52;64.40;100993.47;5029748;28;45216;-70
2022/09/06 03:07:45;;;;;;;;;11.00;9.00;;;;;21.50;64.36;101005.56;5023003;28;46571;-68
2022/09/06 03:10:11;;;;;;;;;8.00;8.00;;;;;21.14;64.28;100943.75;5036159;28;45602;-69
2022/09/06 03:12:36;;;;;;;;;9.00;7.67;;;;;21.41;64.76;100991.41;5029198;28;45395;-69
2022/09/06 03:15:01;;;;;;;;;10.33;9.00;;;;;21.47;65.05;101006.81;5026991;28;45181;-68
2022/09/06 03:17:27;;;;;;;;;5.33;5.00;;;;;21.39;64.99;100998.88;5028685;28;45545;-68
2022/09/06 03:19:52;;;;;;;;;6.33;6.33;;;;;21.32;64.97;100997.25;5031054;28;45581;-68
2022/09/06 03:22:18;;;;;;;;;9.67;9.00;;;;;21.25;65.10;100997.25;5041275;28;45481;-69
2022/09/06 03:24:43;;;;;;;;;8.67;7.67;;;;;21.40;65.25;101010.53;5019425;28;45424;-69
2022/09/06 03:27:09;;;;;;;;;6.67;6.67;;;;;21.27;64.76;101005.16;5020158;28;46910;-71
2022/09/06 03:29:34;;;;;;;;;8.00;7.67;;;;;21.30;64.64;101005.56;5031893;28;61039;-68
2022/09/06 03:31:59;;;;;;;;;7.67;6.00;;;;;21.24;64.44;100996.41;5018922;28;45427;-67
2022/09/06 03:34:25;;;;;;;;;5.33;5.33;;;;;21.24;64.85;100999.13;5019383;28;45347;-68
2022/09/06 03:36:50;;;;;;;;;7.00;7.00;;;;;21.28;64.63;101023.03;5018146;28;58856;-68
2022/09/06 03:39:15;;;;;;;;;9.67;8.00;;;;;21.30;64.80;101032.59;5017552;28;45367;-69
2022/09/06 03:41:41;;;;;;;;;9.67;7.33;;;;;21.27;64.91;101032.19;5019415;28;45542;-68
2022/09/06 03:44:06;;;;;;;;;5.67;5.67;;;;;21.16;65.00;101020.06;5018391;28;45550;-67
2022/09/06 03:46:32;;;;;;;;;7.33;7.00;;;;;21.16;65.25;101020.91;5017051;28;45735;-69
2022/09/06 03:48:58;;;;;;;;;8.00;6.33;;;;;21.16;65.29;101039.00;5018214;28;45360;-68
2022/09/06 03:51:23;;;;;;;;;9.00;7.00;;;;;20.92;65.72;101026.91;5018860;28;45271;-68
2022/09/06 03:53:49;;;;;;;;;7.00;7.00;;;;;20.94;65.46;101025.66;5018917;28;45537;-68
2022/09/06 03:56:14;;;;;;;;;8.67;8.67;;;;;21.02;65.49;101045.41;5018637;28;45677;-69
2022/09/06 03:58:39;;;;;;;;;8.33;8.00;;;;;20.95;65.73;101038.13;5018689;28;45173;-68
2022/09/06 04:01:10;;;;;;;;;8.00;7.33;;;;;21.12;65.61;101067.50;5017826;28;58809;-68
2022/09/06 04:03:36;;;;;;;;;8.00;7.67;;;;;21.14;65.46;101065.41;5019081;28;45321;-68
2022/09/06 04:06:02;;;;;;;;;9.33;9.00;;;;;21.07;65.67;101070.00;5017336;28;46539;-68
2022/09/06 04:08:28;;;;;;;;;13.33;10.33;;;;;20.73;65.50;101019.59;5017344;28;45493;-68
2022/09/06 04:10:55;;;;;;;;;7.67;7.67;;;;;21.00;66.04;101079.94;5019081;28;45336;-68
2022/09/06 04:13:22;;;;;;;;;6.67;6.67;;;;;20.87;66.24;101086.16;5018999;28;45217;-68
2022/09/06 04:15:47;;;;;;;;;10.33;9.33;;;;;20.74;66.89;101076.13;5018539;28;45652;-67
2022/09/06 04:18:13;;;;;;;;;9.33;9.33;;;;;20.81;66.96;101092.34;5017880;28;45258;-68
2022/09/06 04:20:39;;;;;;;;;10.33;8.67;;;;;20.86;66.57;101085.31;5018655;28;45370;-68
2022/09/06 04:23:04;;;;;;;;;7.33;7.33;;;;;20.74;66.24;101059.06;5018840;28;45442;-68
2022/09/06 04:25:29;;;;;;;;;6.67;6.67;;;;;20.85;66.48;101072.84;5018359;28;46266;-68
2022/09/06 04:27:54;;;;;;;;;11.33;9.33;;;;;21.00;66.09;101094.28;5019477;28;51592;-68
2022/09/06 04:30:20;;;;;;;;;0.00;0.00;;;;;20.92;66.23;101079.09;5016251;28;48666;-68
2022/09/06 04:32:45;;;;;;;;;9.00;9.00;;;;;20.97;65.99;101086.59;5018119;28;53737;-68
2022/09/06 04:35:10;;;;;;;;;7.67;7.67;;;;;20.93;66.17;101094.28;5018165;28;45584;-69
2022/09/06 04:37:36;;;;;;;;;9.33;9.33;;;;;20.93;66.27;101098.84;5018125;28;45452;-69
2022/09/06 04:40:01;;;;;;;;;12.33;10.67;;;;;20.74;66.18;101081.53;5017963;28;53377;-68
2022/09/06 04:42:27;;;;;;;;;9.00;7.00;;;;;20.87;66.11;101105.06;5019028;28;45258;-68
2022/09/06 04:44:52;;;;;;;;;8.67;8.67;;;;;20.84;65.93;101100.91;5025373;28;47504;-67
2022/09/06 04:47:18;;;;;;;;;10.67;7.00;;;;;20.78;65.83;101109.81;5026430;28;45281;-68
2022/09/06 04:49:44;;;;;;;;;11.67;7.33;;;;;20.81;65.82;101113.97;5019190;28;45376;-68
2022/09/06 04:52:10;;;;;;;;;9.00;9.00;;;;;20.81;65.33;101114.81;5018535;28;45285;-68
2022/09/06 04:54:36;;;;;;;;;7.00;7.00;;;;;20.75;65.43;101106.69;5017719;28;46589;-68
2022/09/06 04:57:03;;;;;;;;;9.33;7.67;;;;;20.86;65.17;101117.75;5017847;28;45525;-69
2022/09/06 04:59:28;;;;;;;;;8.00;8.00;;;;;20.86;65.14;101120.47;5016514;28;45453;-67
2022/09/06 05:01:53;;;;;;;;;7.00;6.00;;;;;20.89;64.99;101116.50;5018517;28;45312;-69
2022/09/06 05:04:19;;;;;;;;;6.67;6.67;;;;;20.88;65.11;101110.28;5017747;28;45871;-69
2022/09/06 05:06:44;;;;;;;;;9.00;7.00;;;;;20.77;64.93;101089.22;5016498;28;45365;-67
2022/09/06 05:09:10;;;;;;;;;6.00;6.00;;;;;20.92;64.82;101111.53;5017574;28;45921;-68
2022/09/06 05:11:35;;;;;;;;;6.33;6.33;;;;;20.91;64.55;101104.44;5019169;28;45345;-68
2022/09/06 05:14:03;;;;;;;;;9.33;9.33;;;;;20.96;64.58;101110.06;5025876;28;45932;-69
2022/09/06 05:16:29;;;;;;;;;7.00;6.00;;;;;21.00;64.62;101117.78;5016717;28;45408;-68
2022/09/06 05:18:54;;;;;;;;;6.00;6.00;;;;;20.92;63.98;101103.41;5017861;28;45380;-69
2022/09/06 05:21:19;;;;;;;;;7.00;7.00;;;;;21.00;63.87;101112.38;5024571;28;45317;-68
2022/09/06 05:23:45;;;;;;;;;9.00;7.67;;;;;20.99;63.98;101118.81;5029557;28;45770;-67
2022/09/06 05:26:10;;;;;;;;;12.67;8.00;;;;;20.81;63.92;101087.78;5017477;28;45254;-69
2022/09/06 05:28:35;;;;;;;;;9.67;8.33;;;;;20.85;63.81;101094.47;5017341;28;45803;-70
2022/09/06 05:31:09;;;;;;;;;11.33;8.00;;;;;20.91;64.04;101109.03;5017546;28;45495;-68
2022/09/06 05:33:35;;;;;;;;;7.33;7.33;;;;;20.95;64.29;101113.81;5019590;28;47580;-69
2022/09/06 05:36:05;;;;;;;;;10.67;7.67;;;;;21.02;63.60;101119.22;5035717;28;46295;-68
2022/09/06 05:38:30;;;;;;;;;8.00;8.00;;;;;20.74;63.98;101068.00;5025901;28;45444;-69
2022/09/06 05:40:55;;;;;;;;;10.67;9.33;;;;;20.60;63.61;101031.16;5037404;28;45403;-69
2022/09/06 05:43:21;;;;;;;;;9.67;8.33;;;;;21.18;63.53;101108.06;5031995;28;46008;-69
2022/09/06 05:45:46;;;;;;;;;8.33;8.33;;;;;21.18;63.19;101104.53;5031356;28;45417;-70
2022/09/06 05:48:12;;;;;;;;;12.00;10.67;;;;;21.26;63.22;101120.59;5035666;28;45250;-69
2022/09/06 05:50:37;;;;;;;;;14.67;13.33;;;;;21.22;63.31;101103.06;5030537;28;45483;-69
2022/09/06 05:53:02;;;;;;;;;11.00;11.00;;;;;21.27;63.38;101108.75;5017750;28;45627;-69
2022/09/06 05:55:28;;;;;;;;;10.67;9.67;;;;;21.15;63.44;101081.44;5020566;28;45558;-69
2022/09/06 05:57:53;;;;;;;;;12.33;11.00;;;;;21.20;62.98;101091.63;5019026;28;45530;-71
2022/09/06 06:00:19;;;;;;;;;10.00;10.00;;;;;20.78;62.84;101011.69;5031682;28;45372;-68
2022/09/06 06:02:48;;;;;;;;;12.00;10.00;;;;;21.33;62.87;101097.09;5016380;28;45428;-69
2022/09/06 06:05:14;;;;;;;;;8.67;7.67;;;;;21.31;62.60;101091.06;5016530;28;45285;-68
2022/09/06 06:07:39;;;;;;;;;10.67;9.33;;;;;21.40;62.50;101105.22;5017805;28;45521;-74
2022/09/06 06:10:05;;;;;;;;;14.00;14.00;;;;;21.43;62.15;101102.94;5017026;28;45271;-69
2022/09/06 06:12:30;;;;;;;;;10.33;6.67;;;;;21.50;62.25;101097.53;5020930;28;45484;-68
2022/09/06 06:14:56;;;;;;;;;10.00;10.00;;;;;21.53;62.23;101107.94;5031842;28;45696;-71
2022/09/06 06:17:21;;;;;;;;;9.67;8.67;;;;;21.56;61.86;101102.94;5035414;28;45298;-69
2022/09/06 06:19:46;;;;;;;;;10.33;8.00;;;;;21.41;61.99;101040.09;5036923;28;45286;-73
2022/09/06 06:22:12;;;;;;;;;10.33;10.00;;;;;22.03;61.52;101087.53;5036991;28;45705;-68
2022/09/06 06:24:37;;;;;;;;;11.33;10.33;;;;;22.51;59.96;101064.72;5028901;28;56479;-69
2022/09/06 06:27:02;;;;;;;;;10.67;10.67;;;;;23.23;58.59;101067.06;5022034;28;56993;-69
2022/09/06 06:29:28;;;;;;;;;8.00;8.00;;;;;24.00;56.34;101069.56;5040858;28;45498;-70
2022/09/06 06:31:53;;;;;;;;;15.67;13.33;;;;;24.67;54.77;101078.66;5029540;28;46546;-69
2022/09/06 06:34:20;;;;;;;;;17.33;17.00;;;;;25.25;52.91;101080.81;5035961;28;45200;-69
2022/09/06 06:36:46;;;;;;;;;13.67;13.67;;;;;25.87;51.57;101078.56;5019685;28;46591;-69
2022/09/06 06:39:12;;;;;;;;;9.00;8.00;;;;;26.30;49.31;101059.06;5024311;28;45525;-70
2022/09/06 06:41:37;;;;;;;;;8.67;8.67;;;;;27.05;48.36;101085.47;5022981;28;45491;-68
2022/09/06 06:44:04;;;;;;;;;11.00;9.33;;;;;27.67;46.46;101088.19;5025729;28;45432;-70
2022/09/06 06:46:35;;;;;;;;;10.33;9.33;;;;;28.27;44.63;101095.69;5032522;28;45288;-69
2022/09/06 06:49:01;;;;;;;;;11.67;9.67;;;;;28.89;43.91;101084.44;5028775;28;45459;-71
2022/09/06 06:51:29;;;;;;;;;8.67;7.67;;;;;29.56;42.96;101084.00;5002373;28;46756;-70
2022/09/06 06:53:55;;;;;;;;;12.00;10.00;;;;;29.78;41.30;101081.13;5036479;28;45446;-69
2022/09/06 06:56:26;;;;;;;;;8.33;8.33;;;;;29.67;41.38;101077.50;5039058;28;45369;-70
2022/09/06 06:58:56;;;;;;;;;9.00;7.67;;;;;29.80;41.14;101063.34;5029779;28;45270;-70
2022/09/06 07:01:23;;;;;;;;;9.67;9.67;;;;;29.70;41.05;101059.72;5019488;28;45539;-70
2022/09/06 07:03:49;;;;;;;;;9.00;8.00;;;;;29.81;41.05;101078.69;5019365;28;45506;-71
2022/09/06 07:06:15;;;;;;;;;13.67;12.00;;;;;29.85;40.96;101068.03;5019650;28;45243;-71
2022/09/06 07:08:41;;;;;;;;;10.67;9.00;;;;;29.84;40.18;101072.69;5019947;28;45556;-70
2022/09/06 07:11:09;;;;;;;;;9.33;9.33;;;;;29.42;40.55;101058.91;5021838;28;45644;-71
2022/09/06 07:13:35;;;;;;;;;6.00;5.00;;;;;29.13;41.74;101063.03;5020649;28;45520;-71
2022/09/06 07:16:08;;;;;;;;;8.33;8.33;;;;;29.10;41.57;101053.44;5024010;28;45462;-77
2022/09/06 07:18:34;;;;;;;;;12.00;11.33;;;;;29.60;41.20;101057.72;5035125;28;45537;-70
2022/09/06 07:20:59;;;;;;;;;10.00;9.00;;;;;29.84;41.24;101059.00;5029342;28;46956;-73
2022/09/06 07:23:25;;;;;;;;;7.33;7.33;;;;;29.80;41.16;101057.84;5035018;28;45552;-73
2022/09/06 07:25:50;;;;;;;;;7.67;7.67;;;;;29.51;41.28;101051.91;5038577;28;45490;-71
2022/09/06 07:28:15;;;;;;;;;8.00;7.00;;;;;29.44;41.40;101062.25;5026696;28;45376;-74
2022/09/06 07:30:41;;;;;;;;;9.00;9.00;;;;;29.24;41.26;101062.88;5037482;28;48242;-68
2022/09/06 07:33:06;;;;;;;;;9.33;8.33;;;;;28.95;41.96;101043.16;5023847;28;45446;-69
2022/09/06 07:35:32;;;;;;;;;9.00;7.67;;;;;28.84;42.19;101040.56;5017515;28;45381;-69
2022/09/06 07:38:00;;;;;;;;;9.00;9.00;;;;;28.62;42.60;101030.44;5031852;28;45303;-69
2022/09/06 07:40:29;;;;;;;;;7.67;7.67;;;;;28.65;42.46;101061.97;5038508;28;45776;-68
2022/09/06 07:42:58;;;;;;;;;10.00;10.00;;;;;28.35;42.33;101024.13;5038669;28;45336;-69
2022/09/06 07:45:24;;;;;;;;;11.33;8.00;;;;;28.48;42.82;101057.41;5038943;28;45256;-70
2022/09/06 07:47:59;;;;;;;;;8.00;8.00;;;;;28.38;42.80;101056.44;5039264;28;45180;-68
2022/09/06 07:50:26;;;;;;;;;9.33;8.33;;;;;28.51;43.05;101086.16;5037039;28;47536;-69
2022/09/06 07:52:51;;;;;;;;;9.00;7.33;;;;;28.25;42.52;101052.19;5028043;28;45225;-67
2022/09/06 07:55:17;;;;;;;;;8.00;7.00;;;;;28.36;42.82;101070.34;5028502;28;45769;-69
2022/09/06 07:57:42;;;;;;;;;6.67;6.67;;;;;28.23;42.46;101046.09;5030561;28;45476;-68
2022/09/06 08:00:10;;;;;;;;;10.00;8.67;;;;;28.46;42.97;101091.56;5033811;28;46371;-70
2022/09/06 08:02:35;;;;;;;;;7.67;7.00;;;;;28.26;42.48;101058.47;5038471;28;45347;-69
2022/09/06 08:05:01;;;;;;;;;10.67;10.67;;;;;28.54;41.40;101098.47;5037826;28;45492;-69
2022/09/06 08:07:26;;;;;;;;;6.00;6.00;;;;;28.51;41.11;101094.34;5038791;28;45508;-70
2022/09/06 08:09:52;;;;;;;;;5.33;4.00;;;;;28.50;41.07;101091.88;5032873;28;46128;-70
2022/09/06 08:12:17;;;;;;;;;6.00;6.00;;;;;27.97;40.95;100994.91;5036404;28;45462;-69
2022/09/06 08:14:43;;;;;;;;;5.33;4.33;;;;;28.51;40.60;101071.63;5037345;28;45449;-70
2022/09/06 08:17:08;;;;;;;;;6.33;6.00;;;;;28.62;41.32;101082.44;5034824;28;45425;-69
2022/09/06 08:19:34;;;;;;;;;6.00;6.00;;;;;28.08;40.19;100983.84;5039649;28;45165;-69
2022/09/06 08:21:59;;;;;;;;;5.33;5.33;;;;;28.71;40.82;101078.19;5037680;28;45263;-71
2022/09/06 08:24:25;;;;;;;;;5.00;5.00;;;;;28.74;41.07;101088.59;5018678;28;45292;-69
2022/09/06 08:26:50;;;;;;;;;6.33;6.33;;;;;28.61;41.51;101064.38;5018478;28;45259;-68
2022/09/06 08:29:17;;;;;;;;;8.00;6.00;;;;;28.76;41.25;101078.22;5018011;28;45631;-69
2022/09/06 08:31:44;;;;;;;;;5.33;5.33;;;;;28.72;40.75;101073.53;5015758;28;45562;-69
2022/09/06 08:34:11;;;;;;;;;6.00;5.00;;;;;28.76;40.94;101080.97;5024763;28;45476;-69
2022/09/06 08:36:37;;;;;;;;;5.00;5.00;;;;;28.69;39.46;101060.38;5038142;28;45265;-69
2022/09/06 08:39:05;;;;;;;;;5.00;5.00;;;;;28.63;39.17;101043.06;5037882;28;46136;-69
2022/09/06 08:41:36;;;;;;;;;5.33;5.33;;;;;28.76;38.96;101075.50;5037926;28;45420;-71
2022/09/06 08:44:06;;;;;;;;;6.00;5.00;;;;;28.77;39.89;101077.16;5035069;28;45305;-70
2022/09/06 08:46:34;;;;;;;;;7.67;6.00;;;;;28.86;40.21;101065.78;5017997;28;45194;-70
2022/09/06 08:49:00;;;;;;;;;6.00;5.00;;;;;28.73;40.10;101026.75;5016226;28;46515;-68
2022/09/06 08:51:47;;;;;;;;;3.33;2.33;;;;;28.96;38.31;101063.16;5017850;28;45365;-69
2022/09/06 08:54:33;;;;;;;;;4.33;3.00;;;;;29.02;37.11;101067.56;5017348;28;45463;-71
2022/09/06 08:57:21;;;;;;;;;3.00;3.00;;;;;29.07;36.59;101053.97;5016266;28;45468;-69
2022/09/06 08:59:49;;;;;;;;;3.00;3.00;;;;;28.76;36.09;100989.84;5033506;28;45789;-70
2022/09/06 09:02:19;;;;;;;;;3.33;3.00;;;;;29.20;36.11;101042.56;5024989;28;45588;-69
2022/09/06 09:04:59;;;;;;;;;3.00;3.00;;;;;29.38;36.31;101053.13;5023798;28;45655;-68
2022/09/06 09:07:49;;;;;;;;;6.00;6.00;;;;;29.13;36.43;100972.69;5034780;28;45465;-69
2022/09/06 09:10:20;;;;;;;;;4.67;4.00;;;;;29.89;36.97;101055.47;5022524;28;46674;-75
2022/09/06 09:12:47;;;;;;;;;6.00;6.00;;;;;30.09;36.76;101055.59;5022182;28;45562;-69
2022/09/06 09:15:15;;;;;;;;;5.00;5.00;;;;;30.25;36.55;101037.31;5035199;28;45517;-70
2022/09/06 09:17:42;;;;;;;;;4.00;3.00;;;;;30.17;35.83;101002.16;5052580;28;45210;-69
2022/09/06 09:20:07;;;;;;;;;5.00;3.33;;;;;30.51;35.59;101036.31;5034707;28;47614;-74
2022/09/06 09:22:34;;;;;;;;;2.33;2.33;;;;;31.02;34.89;101071.31;5030160;28;45384;-70
2022/09/06 09:25:01;;;;;;;;;3.67;3.67;;;;;31.25;34.19;101083.75;5017300;28;45486;-71
2022/09/06 09:27:28;;;;;;;;;4.00;4.00;;;;;31.34;34.10;101073.84;5030703;28;45320;-69
2022/09/06 09:29:53;;;;;;;;;2.00;2.00;;;;;31.38;32.58;101084.00;5041409;28;47881;-69
2022/09/06 09:32:32;;;;;;;;;1.67;1.67;;;;;31.28;32.52;101089.53;5020648;28;45190;-69
2022/09/06 09:35:36;;;;;;;;;2.67;2.67;;;;;31.21;32.82;101099.09;5021306;28;45311;-70
2022/09/06 09:38:18;;;;;;;;;3.33;2.67;;;;;31.22;32.67;101100.75;5020905;28;45289;-70
2022/09/06 09:41:02;;;;;;;;;5.00;5.00;;;;;31.12;33.40;101096.06;5021677;28;45765;-70
2022/09/06 09:43:56;;;;;;;;;3.00;3.00;;;;;31.02;32.86;101085.03;5037169;28;45460;-71
2022/09/06 09:46:21;;;;;;;;;5.00;5.00;;;;;30.77;34.31;101094.88;5021514;28;45277;-70
2022/09/06 09:49:27;;;;;;;;;7.00;5.67;;;;;30.31;34.57;101068.31;5017179;28;45292;-70
2022/09/06 09:52:13;;;;;;;;;4.33;4.33;;;;;30.17;35.35;101084.44;5021528;28;45506;-72
2022/09/06 09:54:43;;;;;;;;;4.00;2.67;;;;;29.76;36.04;101045.78;5028974;28;45833;-71
2022/09/06 09:57:12;;;;;;;;;4.00;2.67;;;;;29.58;35.99;101068.09;5035140;28;45541;-69
2022/09/06 09:59:46;;;;;;;;;4.33;4.33;;;;;29.24;36.62;101075.75;5036472;28;45466;-69
2022/09/06 10:02:39;;;;;;;;;4.00;4.00;;;;;28.99;36.87;101084.53;5036651;28;45840;-69
2022/09/06 10:05:19;;;;;;;;;3.67;2.33;;;;;28.82;36.96;101091.97;5036384;28;45355;-70
2022/09/06 10:07:53;;;;;;;;;2.67;2.67;;;;;28.63;37.19;101089.59;5037095;28;45534;-69
2022/09/06 10:10:24;;;;;;;;;3.00;3.00;;;;;28.37;37.43;101082.13;5036583;28;45304;-70
2022/09/06 10:13:06;;;;;;;;;4.00;4.00;;;;;28.45;38.54;101111.78;5036637;28;45742;-70
2022/09/06 10:15:39;;;;;;;;;5.67;4.33;;;;;28.37;38.64;101114.94;5029655;28;45481;-70
2022/09/06 10:18:37;;;;;;;;;6.00;6.00;;;;;28.16;39.54;101087.28;5034096;28;45312;-69
2022/09/06 10:21:09;;;;;;;;;4.00;4.00;;;;;28.18;39.82;101101.53;5019902;28;45615;-72
2022/09/06 10:23:49;;;;;;;;;5.00;5.00;;;;;28.18;40.15;101107.00;5030670;28;48867;-69
2022/09/06 10:26:20;;;;;;;;;5.00;5.00;;;;;28.13;41.58;101109.66;5028394;28;45441;-69
2022/09/06 10:28:46;;;;;;;;;4.33;4.33;;;;;27.80;42.34;101064.06;5019919;28;45383;-71
2022/09/06 10:31:53;;;;;;;;;8.33;6.00;;;;;28.07;42.47;101118.88;5019456;28;45467;-71
2022/09/06 10:34:37;;;;;;;;;5.00;5.00;;;;;27.96;42.84;101097.94;5033741;28;46585;-72
2022/09/06 10:37:29;;;;;;;;;4.00;4.00;;;;;27.80;42.26;101072.28;5033571;28;45537;-69
2022/09/06 10:40:01;;;;;;;;;6.00;5.00;;;;;27.75;42.61;101069.47;5045838;28;45497;-72
2022/09/06 10:42:48;;;;;;;;;8.00;5.00;;;;;27.74;42.46;101072.44;5015126;28;45290;-70
2022/09/06 10:45:20;;;;;;;;;6.33;5.00;;;;;27.67;42.95;101052.69;5017940;28;46598;-71
2022/09/06 10:48:09;;;;;;;;;3.67;3.00;;;;;27.61;43.01;101039.97;5033989;28;45474;-71
2022/09/06 10:50:57;;;;;;;;;6.00;6.00;;;;;27.44;43.40;101020.88;5028696;28;45493;-71
2022/09/06 10:53:45;;;;;;;;;7.00;5.33;;;;;27.40;43.53;101023.25;5030539;28;45557;-71
2022/09/06 10:56:17;;;;;;;;;6.00;6.00;;;;;27.37;43.19;101022.94;5021817;28;46683;-71
2022/09/06 10:59:02;;;;;;;;;4.00;4.00;;;;;27.34;43.31;101015.25;5016434;28;45424;-71
2022/09/06 11:01:41;;;;;;;;;5.00;4.67;;;;;27.31;43.96;101016.56;5016332;28;45289;-69
2022/09/06 11:04:18;;;;;;;;;4.67;4.00;;;;;25.99;43.71;100804.19;5015145;28;45432;-69
2022/09/06 11:06:49;;;;;;;;;4.00;4.00;;;;;27.28;43.36;101019.81;5014601;28;47548;-70
2022/09/06 11:09:44;;;;;;;;;8.33;8.00;;;;;27.24;43.33;101024.94;5016039;28;45521;-70
2022/09/06 11:12:22;;;;;;;;;2.00;2.00;;;;;27.20;42.81;101012.00;5016256;28;46526;-70
2022/09/06 11:14:48;;;;;;;;;10.00;9.00;;;;;27.20;43.27;101009.28;5016076;28;45374;-71
2022/09/06 11:17:48;;;;;;;;;14.67;13.33;;;;;27.21;42.89;101013.66;5015362;28;46522;-69
2022/09/06 11:20:52;;;;;;;;;10.00;9.00;;;;;27.21;42.95;101008.22;5019313;28;45501;-71
2022/09/06 11:23:35;;;;;;;;;5.00;5.00;;;;;27.18;42.42;101009.53;5016173;28;45264;-70
2022/09/06 11:26:07;;;;;;;;;8.67;8.00;;;;;27.18;42.57;101008.72;5015876;28;45562;-70
2022/09/06 11:28:41;;;;;;;;;6.67;5.00;;;;;27.16;42.92;101000.75;5017630;28;46337;-69
2022/09/06 11:31:12;;;;;;;;;5.67;5.67;;;;;27.11;42.92;100988.94;5019110;28;46050;-70
2022/09/06 11:33:38;;;;;;;;;7.33;6.00;;;;;27.04;43.44;100989.13;5019142;28;45226;-70
2022/09/06 11:36:43;;;;;;;;;7.00;7.00;;;;;26.98;43.07;100979.97;5019172;28;45439;-70
2022/09/06 11:39:09;;;;;;;;;6.00;5.00;;;;;27.01;43.33;100975.13;5018411;28;45668;-70